sensor_id;sensor_type;location;lat;lon;timestamp;temperature;humidity
439;DHT22;206;48.782;9.252;2024-02-21T00:01:39;9.20;41.10
439;DHT22;206;48.782;9.252;2024-02-21T00:04:05;9.30;41.20
439;DHT22;206;48.782;9.252;2024-02-21T00:06:31;9.30;41.00
439;DHT22;206;48.782;9.252;2024-02-21T00:08:57;9.30;40.90
439;DHT22;206;48.782;9.252;2024-02-21T00:11:22;9.30;41.00
439;DHT22;206;48.782;9.252;2024-02-21T00:13:48;9.30;40.70
439;DHT22;206;48.782;9.252;2024-02-21T00:16:13;9.20;40.50
439;DHT22;206;48.782;9.252;2024-02-21T00:18:41;9.20;40.40
439;DHT22;206;48.782;9.252;2024-02-21T00:21:06;9.20;40.70
439;DHT22;206;48.782;9.252;2024-02-21T00:23:32;9.20;40.40
439;DHT22;206;48.782;9.252;2024-02-21T00:25:58;9.20;40.40
439;DHT22;206;48.782;9.252;2024-02-21T00:28:23;9.20;40.60
439;DHT22;206;48.782;9.252;2024-02-21T00:30:49;9.10;40.70
439;DHT22;206;48.782;9.252;2024-02-21T00:33:16;9.10;40.70
439;DHT22;206;48.782;9.252;2024-02-21T00:35:42;9.10;40.70
439;DHT22;206;48.782;9.252;2024-02-21T00:38:08;9.10;41.40
439;DHT22;206;48.782;9.252;2024-02-21T00:40:34;9.10;41.40
439;DHT22;206;48.782;9.252;2024-02-21T00:43:00;9.10;41.10
439;DHT22;206;48.782;9.252;2024-02-21T00:45:26;9.10;41.10
439;DHT22;206;48.782;9.252;2024-02-21T00:47:51;9.20;40.90
439;DHT22;206;48.782;9.252;2024-02-21T00:50:17;9.20;40.50
439;DHT22;206;48.782;9.252;2024-02-21T00:52:43;9.20;40.20
439;DHT22;206;48.782;9.252;2024-02-21T00:55:09;9.30;40.20
439;DHT22;206;48.782;9.252;2024-02-21T00:57:34;9.30;40.30
439;DHT22;206;48.782;9.252;2024-02-21T01:00:01;9.30;40.20
439;DHT22;206;48.782;9.252;2024-02-21T01:02:26;9.30;40.00
439;DHT22;206;48.782;9.252;2024-02-21T01:04:52;9.40;39.30
439;DHT22;206;48.782;9.252;2024-02-21T01:07:17;9.40;39.30
439;DHT22;206;48.782;9.252;2024-02-21T01:09:43;9.40;39.30
439;DHT22;206;48.782;9.252;2024-02-21T01:12:08;9.40;39.20
439;DHT22;206;48.782;9.252;2024-02-21T01:14:34;9.40;39.30
439;DHT22;206;48.782;9.252;2024-02-21T01:17:00;9.30;39.40
439;DHT22;206;48.782;9.252;2024-02-21T01:19:26;9.30;40.00
439;DHT22;206;48.782;9.252;2024-02-21T01:21:52;9.30;40.20
439;DHT22;206;48.782;9.252;2024-02-21T01:24:17;9.20;40.30
439;DHT22;206;48.782;9.252;2024-02-21T01:26:43;9.30;40.30
439;DHT22;206;48.782;9.252;2024-02-21T01:29:09;9.20;40.30
439;DHT22;206;48.782;9.252;2024-02-21T01:31:34;9.20;40.40
439;DHT22;206;48.782;9.252;2024-02-21T01:34:00;9.10;40.30
439;DHT22;206;48.782;9.252;2024-02-21T01:36:25;9.10;40.70
439;DHT22;206;48.782;9.252;2024-02-21T01:38:51;9.10;41.00
439;DHT22;206;48.782;9.252;2024-02-21T01:41:16;9.00;41.50
439;DHT22;206;48.782;9.252;2024-02-21T01:43:42;9.00;41.30
439;DHT22;206;48.782;9.252;2024-02-21T01:46:08;9.00;41.50
439;DHT22;206;48.782;9.252;2024-02-21T01:48:34;8.90;41.70
439;DHT22;206;48.782;9.252;2024-02-21T01:51:01;8.90;41.50
439;DHT22;206;48.782;9.252;2024-02-21T01:53:34;8.90;41.80
439;DHT22;206;48.782;9.252;2024-02-21T01:56:01;9.00;41.70
439;DHT22;206;48.782;9.252;2024-02-21T01:58:27;9.00;41.90
439;DHT22;206;48.782;9.252;2024-02-21T02:00:56;9.00;42.10
439;DHT22;206;48.782;9.252;2024-02-21T02:03:21;9.00;42.10
439;DHT22;206;48.782;9.252;2024-02-21T02:05:49;9.00;41.30
439;DHT22;206;48.782;9.252;2024-02-21T02:08:19;9.00;40.80
439;DHT22;206;48.782;9.252;2024-02-21T02:10:45;9.00;40.90
439;DHT22;206;48.782;9.252;2024-02-21T02:13:11;9.00;41.30
439;DHT22;206;48.782;9.252;2024-02-21T02:15:40;9.00;41.70
439;DHT22;206;48.782;9.252;2024-02-21T02:18:06;9.00;41.70
439;DHT22;206;48.782;9.252;2024-02-21T02:20:32;9.00;41.60
439;DHT22;206;48.782;9.252;2024-02-21T02:22:59;9.00;41.70
439;DHT22;206;48.782;9.252;2024-02-21T02:25:26;9.00;41.70
439;DHT22;206;48.782;9.252;2024-02-21T02:27:51;9.10;41.80
439;DHT22;206;48.782;9.252;2024-02-21T02:30:17;9.10;41.90
439;DHT22;206;48.782;9.252;2024-02-21T02:32:46;9.20;41.50
439;DHT22;206;48.782;9.252;2024-02-21T02:35:12;9.20;41.20
439;DHT22;206;48.782;9.252;2024-02-21T02:37:37;9.20;41.40
439;DHT22;206;48.782;9.252;2024-02-21T02:40:08;9.20;41.10
439;DHT22;206;48.782;9.252;2024-02-21T02:42:33;9.20;41.50
439;DHT22;206;48.782;9.252;2024-02-21T02:44:59;9.20;40.70
439;DHT22;206;48.782;9.252;2024-02-21T02:47:25;9.20;40.30
439;DHT22;206;48.782;9.252;2024-02-21T02:49:50;9.20;40.60
439;DHT22;206;48.782;9.252;2024-02-21T02:52:17;9.20;40.90
439;DHT22;206;48.782;9.252;2024-02-21T02:54:43;9.20;40.70
439;DHT22;206;48.782;9.252;2024-02-21T02:57:09;9.20;40.50
439;DHT22;206;48.782;9.252;2024-02-21T02:59:35;9.20;40.60
439;DHT22;206;48.782;9.252;2024-02-21T03:02:01;9.30;40.60
439;DHT22;206;48.782;9.252;2024-02-21T03:04:26;9.30;41.10
439;DHT22;206;48.782;9.252;2024-02-21T03:06:52;9.30;41.10
439;DHT22;206;48.782;9.252;2024-02-21T03:09:17;9.30;41.80
439;DHT22;206;48.782;9.252;2024-02-21T03:11:43;9.30;41.00
439;DHT22;206;48.782;9.252;2024-02-21T03:14:09;9.30;41.40
439;DHT22;206;48.782;9.252;2024-02-21T03:16:35;9.20;41.40
439;DHT22;206;48.782;9.252;2024-02-21T03:19:01;9.30;42.10
439;DHT22;206;48.782;9.252;2024-02-21T03:21:26;9.30;42.30
439;DHT22;206;48.782;9.252;2024-02-21T03:23:52;9.30;42.10
439;DHT22;206;48.782;9.252;2024-02-21T03:26:17;9.30;42.40
439;DHT22;206;48.782;9.252;2024-02-21T03:28:44;9.30;42.80
439;DHT22;206;48.782;9.252;2024-02-21T03:31:11;9.20;42.40
439;DHT22;206;48.782;9.252;2024-02-21T03:33:39;9.20;44.10
439;DHT22;206;48.782;9.252;2024-02-21T03:36:05;9.20;44.00
439;DHT22;206;48.782;9.252;2024-02-21T03:38:31;9.10;43.90
439;DHT22;206;48.782;9.252;2024-02-21T03:40:57;9.10;44.00
439;DHT22;206;48.782;9.252;2024-02-21T03:43:22;9.10;43.00
439;DHT22;206;48.782;9.252;2024-02-21T03:45:48;9.10;43.90
439;DHT22;206;48.782;9.252;2024-02-21T03:48:13;9.10;43.50
439;DHT22;206;48.782;9.252;2024-02-21T03:50:39;9.00;42.80
439;DHT22;206;48.782;9.252;2024-02-21T03:53:04;8.90;42.70
439;DHT22;206;48.782;9.252;2024-02-21T03:55:30;8.80;42.20
439;DHT22;206;48.782;9.252;2024-02-21T03:57:56;8.70;43.10
439;DHT22;206;48.782;9.252;2024-02-21T04:00:21;8.70;42.30
439;DHT22;206;48.782;9.252;2024-02-21T04:02:47;8.80;42.50
439;DHT22;206;48.782;9.252;2024-02-21T04:05:15;8.80;42.30
439;DHT22;206;48.782;9.252;2024-02-21T04:07:41;8.90;41.80
439;DHT22;206;48.782;9.252;2024-02-21T04:10:08;8.90;42.40
439;DHT22;206;48.782;9.252;2024-02-21T04:12:33;9.00;43.00
439;DHT22;206;48.782;9.252;2024-02-21T04:14:59;9.00;43.30
439;DHT22;206;48.782;9.252;2024-02-21T04:17:25;9.00;43.90
439;DHT22;206;48.782;9.252;2024-02-21T04:19:50;9.00;43.90
439;DHT22;206;48.782;9.252;2024-02-21T04:22:18;9.00;43.50
439;DHT22;206;48.782;9.252;2024-02-21T04:24:44;9.00;43.90
439;DHT22;206;48.782;9.252;2024-02-21T04:27:09;9.00;43.90
439;DHT22;206;48.782;9.252;2024-02-21T04:29:35;9.10;43.90
439;DHT22;206;48.782;9.252;2024-02-21T04:32:01;9.10;43.70
439;DHT22;206;48.782;9.252;2024-02-21T04:34:27;9.00;43.30
439;DHT22;206;48.782;9.252;2024-02-21T04:36:53;9.00;43.80
439;DHT22;206;48.782;9.252;2024-02-21T04:39:18;8.90;43.70
439;DHT22;206;48.782;9.252;2024-02-21T04:41:44;8.90;42.50
439;DHT22;206;48.782;9.252;2024-02-21T04:44:09;8.80;43.20
439;DHT22;206;48.782;9.252;2024-02-21T04:46:35;8.70;43.60
439;DHT22;206;48.782;9.252;2024-02-21T04:49:00;8.60;43.60
439;DHT22;206;48.782;9.252;2024-02-21T04:51:26;8.60;43.30
439;DHT22;206;48.782;9.252;2024-02-21T04:53:52;8.60;42.90
439;DHT22;206;48.782;9.252;2024-02-21T04:56:17;8.50;42.80
439;DHT22;206;48.782;9.252;2024-02-21T04:58:43;8.50;42.10
439;DHT22;206;48.782;9.252;2024-02-21T05:01:08;8.40;42.50
439;DHT22;206;48.782;9.252;2024-02-21T05:03:34;8.40;42.00
439;DHT22;206;48.782;9.252;2024-02-21T05:05:59;8.40;42.40
439;DHT22;206;48.782;9.252;2024-02-21T05:08:26;8.40;42.50
439;DHT22;206;48.782;9.252;2024-02-21T05:10:51;8.40;43.40
439;DHT22;206;48.782;9.252;2024-02-21T05:13:17;8.30;43.10
439;DHT22;206;48.782;9.252;2024-02-21T05:15:42;8.30;43.30
439;DHT22;206;48.782;9.252;2024-02-21T05:18:08;8.20;43.20
439;DHT22;206;48.782;9.252;2024-02-21T05:20:34;8.10;43.10
439;DHT22;206;48.782;9.252;2024-02-21T05:22:59;8.10;43.20
439;DHT22;206;48.782;9.252;2024-02-21T05:25:25;8.10;43.10
439;DHT22;206;48.782;9.252;2024-02-21T05:27:51;8.00;43.30
439;DHT22;206;48.782;9.252;2024-02-21T05:30:19;8.00;43.10
439;DHT22;206;48.782;9.252;2024-02-21T05:32:45;8.00;43.10
439;DHT22;206;48.782;9.252;2024-02-21T05:35:10;8.00;43.00
439;DHT22;206;48.782;9.252;2024-02-21T05:37:36;8.00;43.00
439;DHT22;206;48.782;9.252;2024-02-21T05:40:01;8.00;43.00
439;DHT22;206;48.782;9.252;2024-02-21T05:42:27;8.00;43.80
439;DHT22;206;48.782;9.252;2024-02-21T05:44:53;8.00;45.00
439;DHT22;206;48.782;9.252;2024-02-21T05:47:18;8.00;45.70
439;DHT22;206;48.782;9.252;2024-02-21T05:49:45;8.00;46.30
439;DHT22;206;48.782;9.252;2024-02-21T05:52:11;8.00;46.70
439;DHT22;206;48.782;9.252;2024-02-21T05:54:40;8.00;47.90
439;DHT22;206;48.782;9.252;2024-02-21T05:57:06;8.00;47.90
439;DHT22;206;48.782;9.252;2024-02-21T05:59:32;8.00;48.20
439;DHT22;206;48.782;9.252;2024-02-21T06:01:58;7.90;49.10
439;DHT22;206;48.782;9.252;2024-02-21T06:04:23;7.90;49.10
439;DHT22;206;48.782;9.252;2024-02-21T06:06:49;7.90;49.00
439;DHT22;206;48.782;9.252;2024-02-21T06:09:14;7.90;48.30
439;DHT22;206;48.782;9.252;2024-02-21T06:11:40;7.90;47.90
439;DHT22;206;48.782;9.252;2024-02-21T06:14:05;7.80;47.80
439;DHT22;206;48.782;9.252;2024-02-21T06:16:31;7.80;47.80
439;DHT22;206;48.782;9.252;2024-02-21T06:18:57;7.80;47.70
439;DHT22;206;48.782;9.252;2024-02-21T06:21:22;7.80;47.20
439;DHT22;206;48.782;9.252;2024-02-21T06:23:48;7.80;45.30
439;DHT22;206;48.782;9.252;2024-02-21T06:26:13;7.80;44.70
439;DHT22;206;48.782;9.252;2024-02-21T06:28:39;7.80;44.10
439;DHT22;206;48.782;9.252;2024-02-21T06:31:04;7.80;44.00
439;DHT22;206;48.782;9.252;2024-02-21T06:33:30;7.90;44.00
439;DHT22;206;48.782;9.252;2024-02-21T06:35:55;7.90;43.40
439;DHT22;206;48.782;9.252;2024-02-21T06:38:22;7.80;42.90
439;DHT22;206;48.782;9.252;2024-02-21T06:40:47;7.90;43.00
439;DHT22;206;48.782;9.252;2024-02-21T06:43:17;7.90;43.00
439;DHT22;206;48.782;9.252;2024-02-21T06:45:44;7.90;43.00
439;DHT22;206;48.782;9.252;2024-02-21T06:48:13;8.00;43.00
439;DHT22;206;48.782;9.252;2024-02-21T06:50:38;8.00;43.00
439;DHT22;206;48.782;9.252;2024-02-21T06:53:04;8.00;42.30
439;DHT22;206;48.782;9.252;2024-02-21T06:55:29;8.10;41.70
439;DHT22;206;48.782;9.252;2024-02-21T06:57:55;8.10;41.90
439;DHT22;206;48.782;9.252;2024-02-21T07:00:21;8.10;41.90
439;DHT22;206;48.782;9.252;2024-02-21T07:02:48;8.20;41.30
439;DHT22;206;48.782;9.252;2024-02-21T07:05:14;8.10;40.70
439;DHT22;206;48.782;9.252;2024-02-21T07:07:39;8.20;41.90
439;DHT22;206;48.782;9.252;2024-02-21T07:10:06;8.20;41.10
439;DHT22;206;48.782;9.252;2024-02-21T07:12:32;8.20;41.70
439;DHT22;206;48.782;9.252;2024-02-21T07:14:57;8.30;41.60
439;DHT22;206;48.782;9.252;2024-02-21T07:17:29;8.30;41.40
439;DHT22;206;48.782;9.252;2024-02-21T07:19:54;8.30;41.20
439;DHT22;206;48.782;9.252;2024-02-21T07:22:22;8.30;40.70
439;DHT22;206;48.782;9.252;2024-02-21T07:24:48;8.30;40.50
439;DHT22;206;48.782;9.252;2024-02-21T07:27:16;8.40;40.40
439;DHT22;206;48.782;9.252;2024-02-21T07:29:42;8.50;40.50
439;DHT22;206;48.782;9.252;2024-02-21T07:32:08;8.60;38.60
439;DHT22;206;48.782;9.252;2024-02-21T07:34:33;8.70;39.00
439;DHT22;206;48.782;9.252;2024-02-21T07:36:59;8.80;38.50
439;DHT22;206;48.782;9.252;2024-02-21T07:39:24;8.90;38.00
439;DHT22;206;48.782;9.252;2024-02-21T07:41:50;9.00;37.40
439;DHT22;206;48.782;9.252;2024-02-21T07:44:16;9.10;37.60
439;DHT22;206;48.782;9.252;2024-02-21T07:46:41;9.10;36.40
439;DHT22;206;48.782;9.252;2024-02-21T07:49:07;9.20;36.20
439;DHT22;206;48.782;9.252;2024-02-21T07:51:32;9.30;35.70
439;DHT22;206;48.782;9.252;2024-02-21T07:53:58;9.40;34.90
439;DHT22;206;48.782;9.252;2024-02-21T07:56:24;9.50;34.80
439;DHT22;206;48.782;9.252;2024-02-21T07:58:52;9.70;34.50
439;DHT22;206;48.782;9.252;2024-02-21T08:01:24;9.90;34.70
439;DHT22;206;48.782;9.252;2024-02-21T08:03:50;10.00;33.10
439;DHT22;206;48.782;9.252;2024-02-21T08:06:15;10.10;31.70
439;DHT22;206;48.782;9.252;2024-02-21T08:08:41;10.20;31.60
439;DHT22;206;48.782;9.252;2024-02-21T08:11:06;10.30;30.80
439;DHT22;206;48.782;9.252;2024-02-21T08:13:32;10.30;30.40
439;DHT22;206;48.782;9.252;2024-02-21T08:15:58;10.30;31.20
439;DHT22;206;48.782;9.252;2024-02-21T08:18:23;10.30;30.90
439;DHT22;206;48.782;9.252;2024-02-21T08:20:49;10.30;31.30
439;DHT22;206;48.782;9.252;2024-02-21T08:23:18;10.40;31.00
439;DHT22;206;48.782;9.252;2024-02-21T08:25:44;10.50;30.40
439;DHT22;206;48.782;9.252;2024-02-21T08:28:09;10.70;30.60
439;DHT22;206;48.782;9.252;2024-02-21T08:30:35;10.80;29.70
439;DHT22;206;48.782;9.252;2024-02-21T08:33:01;11.00;29.70
439;DHT22;206;48.782;9.252;2024-02-21T08:35:26;11.20;29.50
439;DHT22;206;48.782;9.252;2024-02-21T08:37:52;11.40;29.20
439;DHT22;206;48.782;9.252;2024-02-21T08:40:18;11.60;28.10
439;DHT22;206;48.782;9.252;2024-02-21T08:42:46;11.70;27.50
439;DHT22;206;48.782;9.252;2024-02-21T08:45:12;11.70;27.70
439;DHT22;206;48.782;9.252;2024-02-21T08:47:41;11.70;27.50
439;DHT22;206;48.782;9.252;2024-02-21T08:50:09;11.70;27.30
439;DHT22;206;48.782;9.252;2024-02-21T08:52:36;11.70;27.30
439;DHT22;206;48.782;9.252;2024-02-21T08:55:01;11.70;27.30
439;DHT22;206;48.782;9.252;2024-02-21T08:57:28;11.80;27.00
439;DHT22;206;48.782;9.252;2024-02-21T08:59:54;11.90;26.70
439;DHT22;206;48.782;9.252;2024-02-21T09:02:20;12.00;26.50
439;DHT22;206;48.782;9.252;2024-02-21T09:04:45;12.30;26.80
439;DHT22;206;48.782;9.252;2024-02-21T09:07:11;12.40;25.40
439;DHT22;206;48.782;9.252;2024-02-21T09:09:37;12.30;25.40
439;DHT22;206;48.782;9.252;2024-02-21T09:12:08;12.40;25.60
439;DHT22;206;48.782;9.252;2024-02-21T09:14:36;12.40;25.00
439;DHT22;206;48.782;9.252;2024-02-21T09:17:04;12.40;25.40
439;DHT22;206;48.782;9.252;2024-02-21T09:19:29;12.60;25.60
439;DHT22;206;48.782;9.252;2024-02-21T09:21:55;12.60;25.00
439;DHT22;206;48.782;9.252;2024-02-21T09:24:20;12.70;24.60
439;DHT22;206;48.782;9.252;2024-02-21T09:26:46;12.70;24.10
439;DHT22;206;48.782;9.252;2024-02-21T09:29:12;12.70;24.20
439;DHT22;206;48.782;9.252;2024-02-21T09:31:44;12.80;24.00
439;DHT22;206;48.782;9.252;2024-02-21T09:34:11;12.80;23.90
439;DHT22;206;48.782;9.252;2024-02-21T09:36:36;12.90;23.80
439;DHT22;206;48.782;9.252;2024-02-21T09:39:02;12.80;23.50
439;DHT22;206;48.782;9.252;2024-02-21T09:41:28;12.80;23.30
439;DHT22;206;48.782;9.252;2024-02-21T09:43:53;12.80;23.70
439;DHT22;206;48.782;9.252;2024-02-21T09:46:24;12.70;23.70
439;DHT22;206;48.782;9.252;2024-02-21T09:51:51;12.80;24.20
439;DHT22;206;48.782;9.252;2024-02-21T09:54:18;12.90;23.90
439;DHT22;206;48.782;9.252;2024-02-21T09:56:46;13.00;23.80
439;DHT22;206;48.782;9.252;2024-02-21T09:59:15;13.10;23.10
439;DHT22;206;48.782;9.252;2024-02-21T10:01:43;13.20;22.70
439;DHT22;206;48.782;9.252;2024-02-21T10:04:10;13.30;22.40
439;DHT22;206;48.782;9.252;2024-02-21T10:06:36;13.40;22.10
439;DHT22;206;48.782;9.252;2024-02-21T10:09:03;13.60;21.40
439;DHT22;206;48.782;9.252;2024-02-21T10:11:29;13.70;21.50
439;DHT22;206;48.782;9.252;2024-02-21T10:14:05;13.80;20.90
439;DHT22;206;48.782;9.252;2024-02-21T10:16:30;13.90;20.70
439;DHT22;206;48.782;9.252;2024-02-21T10:18:56;14.00;20.20
439;DHT22;206;48.782;9.252;2024-02-21T10:21:22;14.10;19.80
439;DHT22;206;48.782;9.252;2024-02-21T10:23:51;14.30;20.50
439;DHT22;206;48.782;9.252;2024-02-21T10:26:18;14.20;19.10
439;DHT22;206;48.782;9.252;2024-02-21T10:28:44;14.20;19.20
439;DHT22;206;48.782;9.252;2024-02-21T10:31:11;14.30;18.80
439;DHT22;206;48.782;9.252;2024-02-21T10:34:02;14.40;18.90
439;DHT22;206;48.782;9.252;2024-02-21T10:36:31;14.50;18.90
439;DHT22;206;48.782;9.252;2024-02-21T10:38:57;14.60;18.50
439;DHT22;206;48.782;9.252;2024-02-21T10:41:23;14.80;18.00
439;DHT22;206;48.782;9.252;2024-02-21T10:43:51;14.80;18.10
439;DHT22;206;48.782;9.252;2024-02-21T10:46:20;14.90;18.10
439;DHT22;206;48.782;9.252;2024-02-21T10:48:46;14.90;17.10
439;DHT22;206;48.782;9.252;2024-02-21T10:51:17;15.00;17.00
439;DHT22;206;48.782;9.252;2024-02-21T10:58:46;15.40;16.00
439;DHT22;206;48.782;9.252;2024-02-21T11:01:12;15.30;15.90
439;DHT22;206;48.782;9.252;2024-02-21T11:03:41;15.40;15.90
439;DHT22;206;48.782;9.252;2024-02-21T11:06:10;15.50;15.40
439;DHT22;206;48.782;9.252;2024-02-21T11:08:36;15.50;15.20
439;DHT22;206;48.782;9.252;2024-02-21T11:11:02;15.60;14.90
439;DHT22;206;48.782;9.252;2024-02-21T11:13:35;15.70;14.90
439;DHT22;206;48.782;9.252;2024-02-21T11:16:11;15.70;14.40
439;DHT22;206;48.782;9.252;2024-02-21T11:18:39;15.80;14.00
439;DHT22;206;48.782;9.252;2024-02-21T11:21:05;15.70;13.80
439;DHT22;206;48.782;9.252;2024-02-21T11:23:31;15.90;13.40
439;DHT22;206;48.782;9.252;2024-02-21T11:26:06;15.90;13.20
439;DHT22;206;48.782;9.252;2024-02-21T11:28:32;15.90;13.00
439;DHT22;206;48.782;9.252;2024-02-21T11:31:27;16.00;12.70
439;DHT22;206;48.782;9.252;2024-02-21T11:34:03;16.00;12.70
439;DHT22;206;48.782;9.252;2024-02-21T11:36:29;16.10;12.80
439;DHT22;206;48.782;9.252;2024-02-21T11:38:55;16.10;12.80
439;DHT22;206;48.782;9.252;2024-02-21T11:41:29;16.10;12.80
439;DHT22;206;48.782;9.252;2024-02-21T11:43:55;16.20;12.80
439;DHT22;206;48.782;9.252;2024-02-21T11:46:21;16.20;12.80
439;DHT22;206;48.782;9.252;2024-02-21T11:48:46;16.20;12.80
439;DHT22;206;48.782;9.252;2024-02-21T11:51:25;16.20;12.60
439;DHT22;206;48.782;9.252;2024-02-21T11:53:52;16.30;12.90
439;DHT22;206;48.782;9.252;2024-02-21T11:56:18;16.40;12.20
439;DHT22;206;48.782;9.252;2024-02-21T11:58:46;16.40;11.90
439;DHT22;206;48.782;9.252;2024-02-21T12:01:13;16.30;11.90
439;DHT22;206;48.782;9.252;2024-02-21T12:03:39;16.30;12.10
439;DHT22;206;48.782;9.252;2024-02-21T12:06:07;16.50;12.30
439;DHT22;206;48.782;9.252;2024-02-21T12:08:45;16.60;12.00
439;DHT22;206;48.782;9.252;2024-02-21T12:11:37;16.50;10.50
439;DHT22;206;48.782;9.252;2024-02-21T12:14:03;16.60;9.70
439;DHT22;206;48.782;9.252;2024-02-21T12:16:31;16.60;8.90
439;DHT22;206;48.782;9.252;2024-02-21T12:18:59;16.70;8.30
439;DHT22;206;48.782;9.252;2024-02-21T12:21:34;16.70;7.60
439;DHT22;206;48.782;9.252;2024-02-21T12:24:13;16.60;7.70
439;DHT22;206;48.782;9.252;2024-02-21T12:26:39;16.60;7.40
439;DHT22;206;48.782;9.252;2024-02-21T12:29:05;16.60;7.70
439;DHT22;206;48.782;9.252;2024-02-21T12:31:31;16.60;7.70
439;DHT22;206;48.782;9.252;2024-02-21T12:33:57;16.60;7.40
439;DHT22;206;48.782;9.252;2024-02-21T12:36:22;16.70;7.80
439;DHT22;206;48.782;9.252;2024-02-21T12:38:49;16.80;7.60
439;DHT22;206;48.782;9.252;2024-02-21T12:41:15;16.90;7.10
439;DHT22;206;48.782;9.252;2024-02-21T12:43:40;17.00;7.20
439;DHT22;206;48.782;9.252;2024-02-21T12:46:06;17.00;7.20
439;DHT22;206;48.782;9.252;2024-02-21T12:48:34;17.00;6.60
439;DHT22;206;48.782;9.252;2024-02-21T12:51:01;16.80;6.10
439;DHT22;206;48.782;9.252;2024-02-21T12:53:27;16.80;6.30
439;DHT22;206;48.782;9.252;2024-02-21T12:55:52;16.70;6.50
439;DHT22;206;48.782;9.252;2024-02-21T12:58:18;16.70;6.20
439;DHT22;206;48.782;9.252;2024-02-21T13:00:44;16.70;6.70
439;DHT22;206;48.782;9.252;2024-02-21T13:03:10;16.70;6.20
439;DHT22;206;48.782;9.252;2024-02-21T13:05:36;16.80;6.60
439;DHT22;206;48.782;9.252;2024-02-21T13:08:02;16.80;6.40
439;DHT22;206;48.782;9.252;2024-02-21T13:10:28;16.70;6.60
439;DHT22;206;48.782;9.252;2024-02-21T13:12:53;16.70;6.50
439;DHT22;206;48.782;9.252;2024-02-21T13:15:20;16.70;6.20
439;DHT22;206;48.782;9.252;2024-02-21T13:17:45;16.70;6.30
439;DHT22;206;48.782;9.252;2024-02-21T13:20:11;16.70;6.10
439;DHT22;206;48.782;9.252;2024-02-21T13:22:37;16.70;6.10
439;DHT22;206;48.782;9.252;2024-02-21T13:25:03;16.80;6.00
439;DHT22;206;48.782;9.252;2024-02-21T13:27:30;16.70;6.10
439;DHT22;206;48.782;9.252;2024-02-21T13:29:56;16.70;6.10
439;DHT22;206;48.782;9.252;2024-02-21T13:32:21;16.80;5.80
439;DHT22;206;48.782;9.252;2024-02-21T13:34:47;16.80;5.70
439;DHT22;206;48.782;9.252;2024-02-21T13:37:12;16.80;4.80
439;DHT22;206;48.782;9.252;2024-02-21T13:39:39;16.80;5.40
439;DHT22;206;48.782;9.252;2024-02-21T13:42:05;16.80;4.70
439;DHT22;206;48.782;9.252;2024-02-21T13:44:31;16.80;4.60
439;DHT22;206;48.782;9.252;2024-02-21T13:46:57;16.90;5.10
439;DHT22;206;48.782;9.252;2024-02-21T13:49:23;16.80;4.60
439;DHT22;206;48.782;9.252;2024-02-21T13:51:49;16.70;5.10
439;DHT22;206;48.782;9.252;2024-02-21T13:54:14;16.60;4.50
439;DHT22;206;48.782;9.252;2024-02-21T13:56:42;16.60;5.00
439;DHT22;206;48.782;9.252;2024-02-21T13:59:08;16.60;5.30
439;DHT22;206;48.782;9.252;2024-02-21T14:01:34;16.60;5.10
439;DHT22;206;48.782;9.252;2024-02-21T14:04:01;16.60;4.70
439;DHT22;206;48.782;9.252;2024-02-21T14:06:27;16.60;5.00
439;DHT22;206;48.782;9.252;2024-02-21T14:08:52;16.60;5.10
439;DHT22;206;48.782;9.252;2024-02-21T14:11:18;16.60;5.10
439;DHT22;206;48.782;9.252;2024-02-21T14:13:43;16.60;5.20
439;DHT22;206;48.782;9.252;2024-02-21T14:16:10;16.60;4.80
439;DHT22;206;48.782;9.252;2024-02-21T14:18:39;16.50;4.80
439;DHT22;206;48.782;9.252;2024-02-21T14:21:06;16.50;4.60
439;DHT22;206;48.782;9.252;2024-02-21T14:23:32;16.40;4.60
439;DHT22;206;48.782;9.252;2024-02-21T14:25:59;16.40;5.10
439;DHT22;206;48.782;9.252;2024-02-21T14:28:24;16.40;5.00
439;DHT22;206;48.782;9.252;2024-02-21T14:30:50;16.40;4.90
439;DHT22;206;48.782;9.252;2024-02-21T14:33:19;16.50;5.30
439;DHT22;206;48.782;9.252;2024-02-21T14:35:44;16.60;5.10
439;DHT22;206;48.782;9.252;2024-02-21T14:38:10;16.60;5.10
439;DHT22;206;48.782;9.252;2024-02-21T14:40:36;16.60;5.10
439;DHT22;206;48.782;9.252;2024-02-21T14:43:01;16.70;5.50
439;DHT22;206;48.782;9.252;2024-02-21T14:45:27;16.70;5.20
439;DHT22;206;48.782;9.252;2024-02-21T14:47:53;16.70;5.30
439;DHT22;206;48.782;9.252;2024-02-21T14:50:18;16.70;5.30
439;DHT22;206;48.782;9.252;2024-02-21T14:52:44;16.80;5.50
439;DHT22;206;48.782;9.252;2024-02-21T14:55:09;16.70;5.50
439;DHT22;206;48.782;9.252;2024-02-21T14:57:35;16.80;5.60
439;DHT22;206;48.782;9.252;2024-02-21T15:00:08;16.80;5.80
439;DHT22;206;48.782;9.252;2024-02-21T15:02:36;16.80;6.00
439;DHT22;206;48.782;9.252;2024-02-21T15:05:02;16.70;6.80
439;DHT22;206;48.782;9.252;2024-02-21T15:07:29;16.60;6.40
439;DHT22;206;48.782;9.252;2024-02-21T15:09:54;16.60;6.90
439;DHT22;206;48.782;9.252;2024-02-21T15:12:20;16.70;7.10
439;DHT22;206;48.782;9.252;2024-02-21T15:14:47;16.60;7.40
439;DHT22;206;48.782;9.252;2024-02-21T15:17:13;16.50;7.80
439;DHT22;206;48.782;9.252;2024-02-21T15:19:39;16.50;7.80
439;DHT22;206;48.782;9.252;2024-02-21T15:22:09;16.40;8.20
439;DHT22;206;48.782;9.252;2024-02-21T15:24:37;16.40;8.50
439;DHT22;206;48.782;9.252;2024-02-21T15:27:03;16.30;8.60
439;DHT22;206;48.782;9.252;2024-02-21T15:29:28;16.20;8.90
439;DHT22;206;48.782;9.252;2024-02-21T15:31:54;16.10;8.90
439;DHT22;206;48.782;9.252;2024-02-21T15:34:19;16.10;9.30
439;DHT22;206;48.782;9.252;2024-02-21T15:36:45;16.10;9.60
439;DHT22;206;48.782;9.252;2024-02-21T15:39:11;16.00;9.60
439;DHT22;206;48.782;9.252;2024-02-21T15:41:37;16.00;9.20
439;DHT22;206;48.782;9.252;2024-02-21T15:44:03;16.00;9.50
439;DHT22;206;48.782;9.252;2024-02-21T15:46:30;15.90;9.80
439;DHT22;206;48.782;9.252;2024-02-21T15:49:03;15.80;10.20
439;DHT22;206;48.782;9.252;2024-02-21T15:51:28;15.70;10.50
439;DHT22;206;48.782;9.252;2024-02-21T15:53:58;15.70;11.00
439;DHT22;206;48.782;9.252;2024-02-21T15:56:24;15.60;11.50
439;DHT22;206;48.782;9.252;2024-02-21T15:58:50;15.60;12.10
439;DHT22;206;48.782;9.252;2024-02-21T16:01:16;15.50;12.00
439;DHT22;206;48.782;9.252;2024-02-21T16:03:42;15.40;12.30
439;DHT22;206;48.782;9.252;2024-02-21T16:06:07;15.40;12.30
439;DHT22;206;48.782;9.252;2024-02-21T16:08:34;15.40;12.30
439;DHT22;206;48.782;9.252;2024-02-21T16:11:02;15.40;12.40
439;DHT22;206;48.782;9.252;2024-02-21T16:13:28;15.30;13.00
439;DHT22;206;48.782;9.252;2024-02-21T16:15:54;15.30;13.40
439;DHT22;206;48.782;9.252;2024-02-21T16:18:20;15.20;13.90
439;DHT22;206;48.782;9.252;2024-02-21T16:20:49;15.10;14.10
439;DHT22;206;48.782;9.252;2024-02-21T16:23:14;15.00;14.30
439;DHT22;206;48.782;9.252;2024-02-21T16:25:41;15.00;14.50
439;DHT22;206;48.782;9.252;2024-02-21T16:28:07;14.90;14.80
439;DHT22;206;48.782;9.252;2024-02-21T16:30:34;14.90;15.20
439;DHT22;206;48.782;9.252;2024-02-21T16:33:00;14.90;15.30
439;DHT22;206;48.782;9.252;2024-02-21T16:35:25;14.90;16.20
439;DHT22;206;48.782;9.252;2024-02-21T16:37:54;14.80;15.70
439;DHT22;206;48.782;9.252;2024-02-21T16:40:19;14.70;15.70
439;DHT22;206;48.782;9.252;2024-02-21T16:42:45;14.60;16.50
439;DHT22;206;48.782;9.252;2024-02-21T16:45:11;14.50;16.40
439;DHT22;206;48.782;9.252;2024-02-21T16:47:36;14.50;17.10
439;DHT22;206;48.782;9.252;2024-02-21T16:50:03;14.40;16.30